No particular awareness of the weather is required.    There are no Weather-warnings


Meteo18 Weather Cam more information Meteo18 Weather Cam


Thunder radar more information blitzortung!


Rain radar more information rain snow radar


Visit our other weather sites:

Template documentation
and downloads

And another site



Weather Underground History page Text

Daily Summary for December 3, 2017 Units:  English    Metric   Both
« Previous Day
Next Day »
Daily Weekly Monthly Yearly Custom
  High: Low: Average:
Temperature: 34.3 °F 27 °F 30 °F
Dew Point: 33.6 °F 25.3 °F 28.4 °F
Humidity: 97 % 91 % 94 %
Wind Speed: 11 mph 0 mph 2.5 mph
Wind Gust: 12 mph - -
Wind:- - SW
Pressure: 30.5 in 30.4 in -
Precipitation: 0 in    
Historical Graphs
 
 
Tabular Data for December 3, 2017
Time Temperature Dew Point Pressure Wind Wind Speed Wind Gust Humidity Rainfall Rate (Hourly)
00:07 30.2 °F 28.2 °F 30.4 in North 11 mph 11 mph 92 % 0 in
00:12 30.2 °F 28.2 °F 30.4 in NNW 4 mph 11 mph 92 % 0 in
00:17 30.2 °F 28.2 °F 30.4 in NNW 6 mph 11 mph 92 % 0 in
00:32 30 °F 28 °F 30.4 in North 6 mph 12 mph 92 % 0 in
00:37 30 °F 28 °F 30.4 in NE 5 mph 12 mph 92 % 0 in
00:42 29.8 °F 27.9 °F 30.4 in North 8 mph 10 mph 92 % 0 in
00:47 29.8 °F 27.9 °F 30.4 in NNE 7 mph 10 mph 92 % 0 in
00:52 29.8 °F 27.9 °F 30.4 in NW 5 mph 10 mph 92 % 0 in
01:12 29.7 °F 27.9 °F 30.4 in NNW 5 mph 11 mph 93 % 0 in
01:22 29.7 °F 27.9 °F 30.4 in North 5 mph 12 mph 93 % 0 in
01:27 29.7 °F 27.9 °F 30.4 in North 3 mph 12 mph 93 % 0 in
01:32 29.7 °F 27.9 °F 30.4 in North 5 mph 10 mph 93 % 0 in
01:37 29.7 °F 27.9 °F 30.4 in NNW 2 mph 10 mph 93 % 0 in
01:52 29.5 °F 27.7 °F 30.4 in NNW 3 mph 7 mph 93 % 0 in
02:02 29.5 °F 27.7 °F 30.4 in NNE 2 mph 8 mph 93 % 0 in
02:12 29.5 °F 27.7 °F 30.4 in NNW 2 mph 8 mph 93 % 0 in
02:17 29.5 °F 27.7 °F 30.4 in North 2 mph 6 mph 93 % 0 in
02:22 29.5 °F 27.7 °F 30.4 in Calm   6 mph 93 % 0 in
02:27 29.5 °F 27.7 °F 30.4 in North 2 mph 6 mph 93 % 0 in
02:32 29.5 °F 27.7 °F 30.4 in NNW 1 mph 3 mph 93 % 0 in
02:37 29.5 °F 27.5 °F 30.4 in Calm   2 mph 92 % 0 in
02:47 29.1 °F 27.1 °F 30.4 in North 1 mph 4 mph 92 % 0 in
02:57 29.1 °F 27.1 °F 30.4 in North 2 mph 6 mph 92 % 0 in
03:17 29.1 °F 27.1 °F 30.4 in NW 1 mph 7 mph 92 % 0 in
03:27 29.1 °F 27.1 °F 30.4 in NNE 2 mph 5 mph 92 % 0 in
03:32 29.1 °F 27.1 °F 30.4 in NNW 2 mph 4 mph 92 % 0 in
03:37 28.9 °F 27 °F 30.4 in NNW 2 mph 7 mph 92 % 0 in
03:42 28.9 °F 27 °F 30.4 in NNW 2 mph 7 mph 92 % 0 in
03:47 28.9 °F 27 °F 30.4 in NW 1 mph 7 mph 92 % 0 in
03:52 28.8 °F 26.8 °F 30.4 in NNW 1 mph 7 mph 92 % 0 in
03:57 28.8 °F 26.8 °F 30.4 in NNW 1 mph 7 mph 92 % 0 in
04:02 28.8 °F 26.8 °F 30.4 in NNW 1 mph 6 mph 92 % 0 in
04:07 28.9 °F 27 °F 30.4 in Calm   6 mph 92 % 0 in
04:12 28.9 °F 27 °F 30.4 in Calm   2 mph 92 % 0 in
04:17 28.9 °F 27 °F 30.4 in WNW 1 mph 2 mph 92 % 0 in
04:22 28.8 °F 26.8 °F 30.4 in Calm   5 mph 92 % 0 in
04:32 28.6 °F 26.6 °F 30.4 in WNW 5 mph 5 mph 92 % 0 in
04:42 28.2 °F 26.2 °F 30.4 in West 1 mph 5 mph 92 % 0 in
04:47 28.2 °F 26.2 °F 30.4 in West 1 mph 5 mph 92 % 0 in
04:52 28 °F 26.2 °F 30.4 in West 2 mph 4 mph 93 % 0 in
04:57 28 °F 26.1 °F 30.4 in Calm   5 mph 92 % 0 in
05:02 28 °F 26.2 °F 30.4 in WNW 1 mph 5 mph 93 % 0 in
05:12 28 °F 26.2 °F 30.4 in Calm   3 mph 93 % 0 in
05:17 28 °F 26.2 °F 30.4 in Calm   2 mph 93 % 0 in
05:22 28 °F 26.2 °F 30.4 in Calm     93 % 0 in
05:37 28 °F 26.2 °F 30.4 in Calm   3 mph 93 % 0 in
05:42 28 °F 26.2 °F 30.4 in Calm   3 mph 93 % 0 in
05:47 28 °F 26.2 °F 30.4 in Calm   3 mph 93 % 0 in
05:52 28 °F 26.2 °F 30.4 in WNW 2 mph 2 mph 93 % 0 in
06:07 28.2 °F 26.4 °F 30.4 in Calm   3 mph 93 % 0 in
06:12 28.2 °F 26.4 °F 30.4 in NW 1 mph 2 mph 93 % 0 in
06:17 28.2 °F 26.4 °F 30.4 in Calm   2 mph 93 % 0 in
06:22 28.2 °F 26.4 °F 30.4 in Calm   2 mph 93 % 0 in
06:27 28 °F 26.2 °F 30.4 in Calm   1 mph 93 % 0 in
06:32 28 °F 26.2 °F 30.4 in Calm   1 mph 93 % 0 in
06:42 27.9 °F 26.1 °F 30.4 in Calm   2 mph 93 % 0 in
07:02 27.7 °F 25.9 °F 30.4 in Calm   2 mph 93 % 0 in
07:17 27.3 °F 25.5 °F 30.4 in Calm   3 mph 93 % 0 in
07:22 27.3 °F 25.5 °F 30.4 in Calm   3 mph 93 % 0 in
07:32 27.3 °F 25.5 °F 30.4 in Calm   2 mph 93 % 0 in
07:37 27.3 °F 25.5 °F 30.4 in Calm   3 mph 93 % 0 in
07:42 27.3 °F 25.5 °F 30.4 in WSW 2 mph 3 mph 93 % 0 in
07:47 27.3 °F 25.5 °F 30.4 in Calm   3 mph 93 % 0 in
07:52 27.3 °F 25.5 °F 30.4 in Calm   3 mph 93 % 0 in
08:02 27.3 °F 25.5 °F 30.4 in Calm   2 mph 93 % 0 in
08:07 27.3 °F 25.5 °F 30.4 in Calm   2 mph 93 % 0 in
08:17 27.3 °F 25.5 °F 30.4 in Calm   2 mph 93 % 0 in
08:22 27.3 °F 25.5 °F 30.4 in Calm   2 mph 93 % 0 in
08:27 27.3 °F 25.5 °F 30.4 in South 1 mph 2 mph 93 % 0 in
08:42 27.3 °F 25.9 °F 30.4 in SSW 1 mph 5 mph 94 % 0 in
08:52 27.3 °F 25.9 °F 30.4 in Calm   4 mph 94 % 0 in
08:57 27.3 °F 25.9 °F 30.4 in Calm   4 mph 94 % 0 in
09:07 27.3 °F 25.9 °F 30.4 in Calm   1 mph 94 % 0 in
09:22 27.5 °F 26.1 °F 30.4 in Calm   4 mph 94 % 0 in
09:32 27.1 °F 25.7 °F 30.4 in WNW 1 mph 5 mph 94 % 0 in
09:37 27.1 °F 25.7 °F 30.4 in West 1 mph 5 mph 94 % 0 in
09:42 27.3 °F 25.9 °F 30.4 in Calm   5 mph 94 % 0 in
09:47 27.3 °F 25.9 °F 30.4 in West 1 mph 5 mph 94 % 0 in
09:57 27.1 °F 25.3 °F 30.4 in SW 2 mph 8 mph 93 % 0 in
10:02 27 °F 25.5 °F 30.4 in West 3 mph 8 mph 94 % 0 in
10:07 27 °F 25.5 °F 30.4 in SW 1 mph 7 mph 94 % 0 in
10:12 27.1 °F 25.7 °F 30.4 in WSW 5 mph 8 mph 94 % 0 in
10:17 27.1 °F 25.7 °F 30.4 in SW 2 mph 8 mph 94 % 0 in
10:22 27.5 °F 26.1 °F 30.4 in SW 3 mph 8 mph 94 % 0 in
10:32 27.3 °F 25.9 °F 30.4 in SW 6 mph 8 mph 94 % 0 in
10:37 27.3 °F 25.9 °F 30.4 in WSW 2 mph 8 mph 94 % 0 in
10:42 27.1 °F 25.7 °F 30.4 in SW 5 mph 6 mph 94 % 0 in
10:52 27.1 °F 25.7 °F 30.4 in SSW 3 mph 7 mph 94 % 0 in
10:57 27.3 °F 25.9 °F 30.4 in SW 4 mph 7 mph 94 % 0 in
11:02 27.3 °F 25.9 °F 30.4 in SSW 4 mph 8 mph 94 % 0 in
11:07 27.7 °F 26.2 °F 30.4 in SW 1 mph 8 mph 94 % 0 in
11:12 27.9 °F 26.4 °F 30.4 in SSW 5 mph 7 mph 94 % 0 in
11:17 28 °F 26.6 °F 30.4 in WSW 1 mph 7 mph 94 % 0 in
11:27 28 °F 26.2 °F 30.4 in SW 2 mph 7 mph 93 % 0 in
11:32 28 °F 26.2 °F 30.4 in SSW 2 mph 8 mph 93 % 0 in
11:37 28 °F 26.2 °F 30.4 in Calm   8 mph 93 % 0 in
11:42 28.2 °F 26.4 °F 30.4 in WSW 6 mph 8 mph 93 % 0 in
11:47 28.2 °F 26.4 °F 30.4 in SW 3 mph 7 mph 93 % 0 in
11:52 28.2 °F 26.4 °F 30.4 in SW 5 mph 7 mph 93 % 0 in
11:57 28.2 °F 26.4 °F 30.4 in SW 2 mph 8 mph 93 % 0 in
12:02 28.6 °F 26.8 °F 30.4 in SW 3 mph 8 mph 93 % 0 in
12:12 28.6 °F 26.6 °F 30.4 in SW 4 mph 7 mph 92 % 0 in
12:17 28.6 °F 26.6 °F 30.4 in SSW 3 mph 7 mph 92 % 0 in
12:22 28.8 °F 26.8 °F 30.4 in SW 6 mph 7 mph 92 % 0 in
12:27 28.9 °F 27.1 °F 30.4 in SSW 4 mph 7 mph 93 % 0 in
12:32 28.9 °F 27 °F 30.4 in SSW 4 mph 7 mph 92 % 0 in
12:42 29.1 °F 27.1 °F 30.4 in SSW 3 mph 8 mph 92 % 0 in
12:47 29.1 °F 27.1 °F 30.4 in SSW 3 mph 7 mph 92 % 0 in
12:52 29.1 °F 27.1 °F 30.4 in South 4 mph 6 mph 92 % 0 in
12:57 29.1 °F 27.1 °F 30.4 in SSW 6 mph 8 mph 92 % 0 in
13:02 29.1 °F 27.1 °F 30.4 in SSW 5 mph 8 mph 92 % 0 in
13:07 29.1 °F 27.1 °F 30.4 in SW 4 mph 8 mph 92 % 0 in
13:17 29.3 °F 27.3 °F 30.4 in SW 6 mph 7 mph 92 % 0 in
13:22 29.5 °F 27.7 °F 30.4 in South 3 mph 7 mph 93 % 0 in
13:27 29.5 °F 27.5 °F 30.4 in SSW 3 mph 7 mph 92 % 0 in
13:32 29.3 °F 27.3 °F 30.4 in SW 2 mph 8 mph 92 % 0 in
13:42 29.5 °F 27.5 °F 30.4 in SW 3 mph 8 mph 92 % 0 in
13:47 29.5 °F 27.5 °F 30.4 in SW 6 mph 9 mph 92 % 0 in
13:52 29.7 °F 27.7 °F 30.4 in SW 5 mph 9 mph 92 % 0 in
14:02 29.7 °F 27.7 °F 30.4 in SW 7 mph 8 mph 92 % 0 in
14:12 29.8 °F 27.9 °F 30.4 in SSW 5 mph 7 mph 92 % 0 in
14:17 30 °F 28 °F 30.4 in WSW 4 mph 7 mph 92 % 0 in
14:22 30.2 °F 28.2 °F 30.4 in SSW 7 mph 7 mph 92 % 0 in
14:32 30.2 °F 28.2 °F 30.4 in SW 3 mph 9 mph 92 % 0 in
14:37 30.4 °F 28.4 °F 30.4 in SW 7 mph 9 mph 92 % 0 in
14:42 30.2 °F 27.9 °F 30.4 in SW 4 mph 8 mph 91 % 0 in
14:47 30.2 °F 27.9 °F 30.4 in SW 5 mph 8 mph 91 % 0 in
14:52 30.4 °F 28 °F 30.4 in SW 8 mph 8 mph 91 % 0 in
14:57 30.6 °F 28.2 °F 30.4 in SW 6 mph 8 mph 91 % 0 in
15:07 30.6 °F 28.2 °F 30.4 in SW 4 mph 9 mph 91 % 0 in
15:12 30.6 °F 28.2 °F 30.4 in SW 8 mph 9 mph 91 % 0 in
15:17 30.7 °F 28.4 °F 30.4 in SW 7 mph 9 mph 91 % 0 in
15:22 30.7 °F 28.4 °F 30.4 in SW 4 mph 10 mph 91 % 0 in
15:32 30.7 °F 28.8 °F 30.4 in SW 8 mph 10 mph 92 % 0 in
15:37 30.7 °F 28.8 °F 30.4 in SW 4 mph 10 mph 92 % 0 in
15:42 30.7 °F 28.8 °F 30.4 in SW 5 mph 9 mph 92 % 0 in
15:47 30.7 °F 28.8 °F 30.4 in SW 4 mph 9 mph 92 % 0 in
15:52 30.9 °F 28.9 °F 30.4 in SW 4 mph 9 mph 92 % 0 in
15:57 30.9 °F 28.9 °F 30.4 in SW 4 mph 7 mph 92 % 0 in
16:02 30.9 °F 28.9 °F 30.4 in SW 2 mph 7 mph 92 % 0 in
16:12 31.1 °F 29.1 °F 30.4 in SW 5 mph 7 mph 92 % 0 in
16:17 30.9 °F 28.9 °F 30.4 in SSW 6 mph 7 mph 92 % 0 in
16:22 31.1 °F 29.1 °F 30.4 in SSW 4 mph 7 mph 92 % 0 in
16:27 31.3 °F 29.3 °F 30.4 in SW 6 mph 8 mph 92 % 0 in
16:32 31.3 °F 29.3 °F 30.4 in SW 7 mph 8 mph 92 % 0 in
16:37 31.3 °F 29.3 °F 30.4 in SW 5 mph 8 mph 92 % 0 in
16:42 31.3 °F 29.3 °F 30.4 in SW 5 mph 9 mph 92 % 0 in
16:47 31.3 °F 29.3 °F 30.4 in WSW 5 mph 9 mph 92 % 0 in
16:52 31.3 °F 29.5 °F 30.4 in SSW 2 mph 9 mph 93 % 0 in
16:57 31.5 °F 29.7 °F 30.4 in SW 2 mph 8 mph 93 % 0 in
17:02 31.3 °F 29.5 °F 30.4 in SW 5 mph 8 mph 93 % 0 in
17:12 31.5 °F 29.7 °F 30.4 in SW 3 mph 8 mph 93 % 0 in
17:17 31.5 °F 29.7 °F 30.4 in WSW 6 mph 8 mph 93 % 0 in
17:22 31.5 °F 29.7 °F 30.4 in SW 5 mph 8 mph 93 % 0 in
17:27 31.5 °F 29.5 °F 30.4 in SW 3 mph 8 mph 92 % 0 in
17:32 31.6 °F 29.8 °F 30.4 in SSW 5 mph 8 mph 93 % 0 in
17:37 31.6 °F 29.8 °F 30.4 in SSW 2 mph 8 mph 93 % 0 in
17:42 31.6 °F 29.8 °F 30.4 in SW 4 mph 6 mph 93 % 0 in
17:52 31.6 °F 29.8 °F 30.4 in SW 2 mph 5 mph 93 % 0 in
17:57 31.6 °F 29.8 °F 30.4 in WSW 5 mph 5 mph 93 % 0 in
18:02 31.6 °F 29.8 °F 30.4 in SSW 2 mph 5 mph 93 % 0 in
18:12 31.6 °F 30.2 °F 30.4 in SW 4 mph 5 mph 94 % 0 in
18:17 31.6 °F 30.2 °F 30.4 in SSW 2 mph 5 mph 94 % 0 in
18:22 31.6 °F 30.2 °F 30.4 in SSW 1 mph 5 mph 94 % 0 in
18:32 31.6 °F 30.4 °F 30.4 in SSW 1 mph 4 mph 95 % 0 in
18:42 31.6 °F 30.4 °F 30.4 in SW 2 mph 4 mph 95 % 0 in
18:47 31.6 °F 30.4 °F 30.4 in SSW 1 mph 4 mph 95 % 0 in
18:52 31.6 °F 30.4 °F 30.4 in SW 2 mph 4 mph 95 % 0 in
19:02 31.6 °F 30.6 °F 30.4 in SSW 2 mph 4 mph 96 % 0 in
19:07 31.6 °F 30.6 °F 30.4 in SW 3 mph 5 mph 96 % 0 in
19:12 31.8 °F 30.7 °F 30.4 in SW 1 mph 5 mph 96 % 0 in
19:17 31.8 °F 30.7 °F 30.4 in SW 1 mph 5 mph 96 % 0 in
19:22 31.8 °F 30.7 °F 30.4 in SW 3 mph 5 mph 96 % 0 in
19:27 31.8 °F 30.7 °F 30.4 in South 3 mph 6 mph 96 % 0 in
19:32 31.8 °F 30.7 °F 30.4 in SW 3 mph 6 mph 96 % 0 in
19:42 31.8 °F 30.7 °F 30.4 in SSW 2 mph 5 mph 96 % 0 in
19:47 32 °F 30.9 °F 30.4 in SW 2 mph 5 mph 96 % 0 in
19:57 32.2 °F 31.1 °F 30.4 in SSW 3 mph 5 mph 96 % 0 in
20:02 32.2 °F 31.1 °F 30.4 in SW 1 mph 5 mph 96 % 0 in
20:07 32.2 °F 31.1 °F 30.4 in SW 3 mph 4 mph 96 % 0 in
20:12 32.2 °F 31.1 °F 30.4 in SW 3 mph 4 mph 96 % 0 in
20:17 32.4 °F 31.3 °F 30.4 in SSW 1 mph 4 mph 96 % 0 in
20:22 32.4 °F 31.3 °F 30.4 in SSW 1 mph 4 mph 96 % 0 in
20:27 32.4 °F 31.3 °F 30.4 in SSW 1 mph 4 mph 96 % 0 in
20:32 32.4 °F 31.3 °F 30.4 in SW 2 mph 3 mph 96 % 0 in
20:37 32.4 °F 31.3 °F 30.4 in South 2 mph 3 mph 96 % 0 in
20:42 32.4 °F 31.6 °F 30.4 in SW 4 mph 6 mph 97 % 0 in
20:47 32.5 °F 31.8 °F 30.4 in SSW 2 mph 7 mph 97 % 0 in
20:57 32.5 °F 31.8 °F 30.4 in Calm   7 mph 97 % 0 in
21:02 32.5 °F 31.8 °F 30.4 in SW 1 mph 6 mph 97 % 0 in
21:07 32.5 °F 31.8 °F 30.4 in SSE 2 mph 6 mph 97 % 0 in
21:17 32.7 °F 32 °F 30.4 in SW 1 mph 4 mph 97 % 0 in
21:22 32.7 °F 32 °F 30.4 in WSW 2 mph 4 mph 97 % 0 in
21:27 32.7 °F 32 °F 30.4 in SSW 1 mph 4 mph 97 % 0 in
21:32 32.7 °F 32 °F 30.4 in SW 2 mph 4 mph 97 % 0 in
21:37 32.7 °F 32 °F 30.4 in SSW 2 mph 4 mph 97 % 0 in
21:47 32.9 °F 32.2 °F 30.4 in SW 2 mph 6 mph 97 % 0 in
21:52 32.9 °F 32.2 °F 30.4 in SW 3 mph 6 mph 97 % 0 in
21:57 33.1 °F 32.4 °F 30.4 in SW 2 mph 6 mph 97 % 0 in
22:02 33.1 °F 32.4 °F 30.4 in SW 2 mph 5 mph 97 % 0 in
22:07 33.1 °F 32.4 °F 30.4 in SW 1 mph 5 mph 97 % 0 in
22:12 33.1 °F 32.4 °F 30.4 in SW 2 mph 4 mph 97 % 0 in
22:17 33.1 °F 32.4 °F 30.4 in Calm   4 mph 97 % 0 in
22:22 33.3 °F 32.5 °F 30.4 in Calm   4 mph 97 % 0 in
22:27 33.3 °F 32.5 °F 30.4 in SW 1 mph 3 mph 97 % 0 in
22:32 33.3 °F 32.5 °F 30.4 in WSW 1 mph 2 mph 97 % 0 in
22:37 33.3 °F 32.5 °F 30.4 in Calm   2 mph 97 % 0 in
22:42 33.4 °F 32.7 °F 30.4 in Calm   3 mph 97 % 0 in
22:47 33.4 °F 32.7 °F 30.4 in WNW 4 mph 4 mph 97 % 0 in
22:52 33.6 °F 32.9 °F 30.4 in SW 1 mph 5 mph 97 % 0 in
22:57 33.6 °F 32.9 °F 30.4 in South 1 mph 5 mph 97 % 0 in
23:02 33.6 °F 32.9 °F 30.4 in South 1 mph 5 mph 97 % 0 in
23:12 33.8 °F 33.1 °F 30.4 in Calm   3 mph 97 % 0 in
23:17 33.8 °F 33.1 °F 30.5 in SW 1 mph 3 mph 97 % 0 in
23:22 34 °F 33.3 °F 30.5 in SW 1 mph 3 mph 97 % 0 in
23:32 34 °F 33.3 °F 30.5 in SW 1 mph 3 mph 97 % 0 in
23:37 34 °F 33.3 °F 30.5 in SW 1 mph 3 mph 97 % 0 in
23:42 34.2 °F 33.4 °F 30.5 in WSW 3 mph 5 mph 97 % 0 in
23:47 34.2 °F 33.4 °F 30.5 in Calm   5 mph 97 % 0 in
23:52 34.2 °F 33.4 °F 30.5 in Calm   5 mph 97 % 0 in
23:57 34.3 °F 33.6 °F 30.5 in Calm   5 mph 97 % 0 in
Meteo18
Compliments of Weather Underground - 4 mb

Script developed by  Jim McMurry - jmcmurry@mwt.net Adapted for the template by  Wim van der Kuil - Leuven-Template.eu

You find our weather info also at:

European Weather Network

Weather Underground

Equipment we use:

Weather-station
Davis Vue

Weather-program
Meteohub

Weather-server
Raspberry PI 2 B+

Provider
1 and 1

Davis Vue

Meteohub

Raspberry PI 2 B+

1 and 1